Time;durP1;ratioP1;P1;durP2;ratioP2;P2;SDS_P1;SDS_P2;PMS_P1;PMS_P2;Temp;Humidity;BMP_temperature;BMP_pressure;BME280_temperature;BME280_humidity;BME280_pressure;Samples;Min_cycle;Max_cycle;Signal;HPM_P1;HPM_P2
2022/06/25 00:01:48;;;;;;;3.53;1.80;;;;;;;16.54;100.00;99889.09;5074285;28;20107;-70
2022/06/25 00:06:57;;;;;;;3.70;1.90;;;;;;;16.55;100.00;99896.97;5060281;28;20111;-70
2022/06/25 00:09:23;;;;;;;3.85;2.13;;;;;;;16.50;100.00;99892.97;5072698;28;20111;-70
2022/06/25 00:14:32;;;;;;;5.97;1.77;;;;;;;16.46;100.00;99902.16;5083026;28;20136;-69
2022/06/25 00:16:57;;;;;;;4.95;2.08;;;;;;;16.32;100.00;99880.25;5074192;28;20115;-69
2022/06/25 00:19:23;;;;;;;6.55;1.92;;;;;;;16.33;100.00;99892.56;5085192;28;20024;-69
2022/06/25 00:21:49;;;;;;;4.78;1.80;;;;;;;16.38;100.00;99899.28;5087032;28;20481;-69
2022/06/25 00:24:16;;;;;;;8.05;2.15;;;;;;;16.35;100.00;99889.78;5078106;28;20054;-69
2022/06/25 00:26:42;;;;;;;3.40;1.75;;;;;;;16.27;100.00;99876.31;5091183;28;20032;-69
2022/06/25 00:29:08;;;;;;;2.78;1.48;;;;;;;16.16;100.00;99863.06;5067535;28;20438;-69
2022/06/25 00:31:33;;;;;;;3.78;2.00;;;;;;;16.02;100.00;99840.34;5083161;28;20035;-69
2022/06/25 00:33:58;;;;;;;3.92;2.00;;;;;;;16.35;100.00;99890.63;5056960;28;20044;-69
2022/06/25 00:36:24;;;;;;;3.80;2.03;;;;;;;16.29;100.00;99883.16;5066743;28;20024;-69
2022/06/25 00:38:49;;;;;;;4.72;1.85;;;;;;;16.25;100.00;99879.09;5054260;28;20032;-70
2022/06/25 00:41:14;;;;;;;4.20;2.00;;;;;;;16.26;100.00;99891.38;5065924;28;20051;-70
2022/06/25 00:43:40;;;;;;;3.65;1.80;;;;;;;16.20;100.00;99891.03;5075994;28;20048;-70
2022/06/25 00:46:06;;;;;;;4.03;1.80;;;;;;;16.25;100.00;99915.38;5080067;28;20027;-70
2022/06/25 00:48:32;;;;;;;4.05;1.83;;;;;;;16.23;100.00;99902.22;5063156;28;20032;-69
2022/06/25 00:51:00;;;;;;;3.28;1.50;;;;;;;16.15;100.00;99899.38;5059113;28;20023;-69
2022/06/25 00:53:31;;;;;;;4.82;1.73;;;;;;;16.19;100.00;99906.09;5065858;28;20069;-69
2022/06/25 00:55:58;;;;;;;6.30;2.10;;;;;;;16.03;100.00;99884.44;5067489;28;20053;-69
2022/06/25 00:58:30;;;;;;;3.22;2.08;;;;;;;16.12;100.00;99904.91;5075954;28;20028;-69
2022/06/25 01:00:55;;;;;;;6.32;2.08;;;;;;;16.09;100.00;99905.16;5091184;28;20027;-69
2022/06/25 01:03:21;;;;;;;4.05;2.10;;;;;;;16.03;100.00;99884.44;5058752;28;20031;-69
2022/06/25 01:05:46;;;;;;;7.53;2.00;;;;;;;16.05;100.00;99898.44;5084644;28;20462;-69
2022/06/25 01:08:12;;;;;;;5.40;2.10;;;;;;;16.05;100.00;99905.53;5083746;28;20470;-69
2022/06/25 01:10:37;;;;;;;3.55;2.00;;;;;;;16.07;100.00;99917.69;5084994;28;20074;-69
2022/06/25 01:13:02;;;;;;;5.72;2.20;;;;;;;16.04;100.00;99928.53;5070487;28;20050;-69
2022/06/25 01:15:28;;;;;;;6.60;2.58;;;;;;;16.02;100.00;99925.16;5087904;28;20029;-69
2022/06/25 01:17:53;;;;;;;5.45;2.13;;;;;;;15.85;100.00;99902.66;5083810;28;20027;-69
2022/06/25 01:20:23;;;;;;;8.50;2.45;;;;;;;15.92;100.00;99926.84;5083900;28;20020;-69
2022/06/25 01:22:49;;;;;;;5.28;2.05;;;;;;;15.92;100.00;99929.50;5071529;28;20154;-70
2022/06/25 01:25:18;;;;;;;7.97;1.92;;;;;;;15.88;100.00;99938.69;5077385;28;20103;-70
2022/06/25 01:27:44;;;;;;;3.22;1.75;;;;;;;15.85;100.00;99938.91;5084005;28;20028;-70
2022/06/25 01:30:12;;;;;;;4.97;2.60;;;;;;;15.79;100.00;99939.41;5084583;28;20485;-70
2022/06/25 01:32:37;;;;;;;4.55;2.15;;;;;;;15.65;100.00;99932.53;5031704;28;20035;-70
2022/06/25 01:35:04;;;;;;;3.78;1.83;;;;;;;15.61;100.00;99933.75;5084572;28;20881;-70
2022/06/25 01:37:29;;;;;;;6.15;2.33;;;;;;;15.67;100.00;99948.31;5053593;28;20047;-70
2022/06/25 01:39:56;;;;;;;5.50;2.53;;;;;;;15.36;100.00;99910.13;5052988;28;20025;-70
2022/06/25 01:45:06;;;;;;;5.47;2.17;;;;;;;15.42;100.00;99932.63;5070185;28;20043;-70
2022/06/25 01:47:32;;;;;;;3.63;2.28;;;;;;;15.49;100.00;99962.97;5067350;28;20036;-70
2022/06/25 01:49:57;;;;;;;4.43;2.20;;;;;;;15.45;100.00;99950.91;5082829;28;20145;-70
2022/06/25 01:52:22;;;;;;;5.25;2.38;;;;;;;15.43;100.00;99968.72;5069340;28;20177;-69
2022/06/25 01:54:48;;;;;;;3.97;2.22;;;;;;;15.29;100.00;99948.59;5061650;28;20024;-69
2022/06/25 01:57:13;;;;;;;5.70;2.65;;;;;;;15.29;100.00;99953.91;5071254;28;20363;-69
2022/06/25 01:59:39;;;;;;;4.38;2.20;;;;;;;15.27;100.00;99959.34;5064716;28;20021;-69
2022/06/25 02:02:04;;;;;;;6.53;2.53;;;;;;;15.16;100.00;99946.06;5071423;28;20020;-69
2022/06/25 02:04:29;;;;;;;3.70;2.30;;;;;;;15.16;100.00;99951.34;5083800;28;20028;-69
2022/06/25 02:06:55;;;;;;;6.28;2.33;;;;;;;15.24;100.00;99969.31;5076647;28;20017;-69
2022/06/25 02:09:20;;;;;;;5.75;2.20;;;;;;;15.12;100.00;99955.19;5066592;28;20035;-69
2022/06/25 02:11:48;;;;;;;4.20;2.25;;;;;;;15.19;100.00;99972.28;5082480;28;20111;-69
2022/06/25 02:14:14;;;;;;;4.07;2.72;;;;;;;15.16;100.00;99969.88;5081418;28;20020;-69
2022/06/25 02:16:40;;;;;;;4.97;2.60;;;;;;;15.13;100.00;99964.81;5091716;28;20031;-69
2022/06/25 02:19:06;;;;;;;3.45;2.40;;;;;;;15.04;100.00;99956.75;5078698;28;20086;-69
2022/06/25 02:21:31;;;;;;;15.98;2.70;;;;;;;15.10;100.00;99977.44;5076572;28;20056;-69
2022/06/25 02:23:57;;;;;;;3.92;2.40;;;;;;;15.05;100.00;99980.44;5085270;28;20032;-69
2022/06/25 02:26:22;;;;;;;5.20;2.95;;;;;;;15.03;100.00;99979.72;5061106;28;20467;-69
2022/06/25 02:28:48;;;;;;;5.72;2.85;;;;;;;14.97;100.00;99976.69;5078274;28;20044;-69
2022/06/25 02:31:13;;;;;;;5.25;3.05;;;;;;;14.95;100.00;99968.84;5079553;28;20030;-69
2022/06/25 02:33:39;;;;;;;4.13;3.03;;;;;;;15.03;100.00;99992.09;5086654;28;20056;-68
2022/06/25 02:36:04;;;;;;;7.88;3.25;;;;;;;15.01;100.00;99989.56;5087659;28;20024;-69
2022/06/25 02:38:30;;;;;;;6.05;2.47;;;;;;;15.00;100.00;99987.88;5076398;28;20436;-68
2022/06/25 02:40:56;;;;;;;6.13;2.92;;;;;;;15.06;100.00;100002.44;5080629;28;20044;-68
2022/06/25 02:43:21;;;;;;;4.95;2.92;;;;;;;15.09;100.00;100003.06;5082650;28;20028;-68
2022/06/25 02:45:46;;;;;;;5.32;3.20;;;;;;;15.02;100.00;99983.31;5092152;28;20020;-68
2022/06/25 02:48:12;;;;;;;4.35;3.25;;;;;;;15.04;100.00;99985.84;5071332;28;20040;-68
2022/06/25 02:50:37;;;;;;;4.50;2.95;;;;;;;15.07;100.00;99989.09;5088871;28;20060;-68
2022/06/25 02:53:03;;;;;;;13.35;4.10;;;;;;;15.14;100.00;100000.91;5080801;28;20039;-69
2022/06/25 03:00:56;;;;;;;4.10;2.80;;;;;;;15.14;100.00;99997.44;5056911;28;20403;-69
2022/06/25 03:03:21;;;;;;;5.57;3.42;;;;;;;15.21;100.00;100007.41;5067348;28;20033;-70
2022/06/25 03:05:47;;;;;;;5.10;3.42;;;;;;;15.01;100.00;99976.31;5074299;28;20027;-69
2022/06/25 03:08:12;;;;;;;4.32;2.85;;;;;;;15.29;100.00;100020.94;5091405;28;20035;-69
2022/06/25 03:10:37;;;;;;;3.67;2.78;;;;;;;15.26;100.00;100002.63;5060076;28;20075;-70
2022/06/25 03:13:03;;;;;;;4.43;3.30;;;;;;;15.21;100.00;100007.41;5062391;28;20032;-70
2022/06/25 03:15:28;;;;;;;8.05;3.15;;;;;;;15.29;100.00;100015.63;5073704;28;20051;-70
2022/06/25 03:17:54;;;;;;;4.93;2.92;;;;;;;15.28;100.00;100013.94;5079721;28;20103;-70
2022/06/25 03:20:20;;;;;;;4.80;2.85;;;;;;;15.13;100.00;99977.22;5081799;28;20032;-70
2022/06/25 03:22:45;;;;;;;4.82;2.97;;;;;;;15.25;100.00;99998.28;5084779;28;20051;-70
2022/06/25 03:25:11;;;;;;;4.57;3.28;;;;;;;15.32;100.00;100004.81;5067807;28;20089;-70
2022/06/25 03:27:36;;;;;;;4.60;2.90;;;;;;;15.31;100.00;99992.53;5065435;28;20024;-69
2022/06/25 03:30:03;;;;;;;8.40;3.53;;;;;;;15.21;100.00;99975.66;5083024;28;20482;-70
2022/06/25 03:32:29;;;;;;;4.05;2.50;;;;;;;15.39;100.00;99999.03;5055635;28;20026;-70
2022/06/25 03:34:54;;;;;;;5.38;3.40;;;;;;;15.45;100.00;100001.22;5078821;28;20141;-70
2022/06/25 03:37:19;;;;;;;6.57;2.80;;;;;;;15.48;100.00;100003.66;5083157;28;20032;-70
2022/06/25 03:39:45;;;;;;;8.43;3.60;;;;;;;15.53;100.00;100017.41;5063570;28;20033;-71
2022/06/25 03:42:10;;;;;;;5.10;2.88;;;;;;;15.47;100.00;100005.47;5072018;28;20364;-69
2022/06/25 03:44:35;;;;;;;5.28;2.85;;;;;;;15.49;100.00;100000.06;5065784;28;20036;-69
2022/06/25 03:47:01;;;;;;;6.55;3.45;;;;;;;15.55;100.00;99999.59;5085078;28;20034;-70
2022/06/25 03:49:26;;;;;;;7.10;3.28;;;;;;;15.55;100.00;99994.28;5086002;28;20451;-70
2022/06/25 03:51:52;;;;;;;6.53;2.70;;;;;;;15.61;100.00;100001.78;5060189;28;20032;-70
2022/06/25 03:54:17;;;;;;;8.45;3.15;;;;;;;15.68;100.00;100008.28;5073558;28;20025;-70
2022/06/25 03:56:43;;;;;;;4.60;2.63;;;;;;;15.78;100.00;100022.50;5075807;28;20025;-71
2022/06/25 03:59:08;;;;;;;4.50;2.80;;;;;;;15.81;100.00;100020.47;5087883;28;20039;-70
2022/06/25 04:01:33;;;;;;;4.38;2.63;;;;;;;15.78;100.00;100006.63;5084979;28;20035;-70
2022/06/25 04:03:59;;;;;;;6.45;3.13;;;;;;;15.90;100.00;100024.19;5068482;28;20021;-70
2022/06/25 04:06:25;;;;;;;8.02;3.35;;;;;;;15.87;100.00;100021.78;5064677;28;20028;-70
2022/06/25 04:08:50;;;;;;;5.43;3.08;;;;;;;15.94;100.00;100032.75;5058274;28;20493;-69
2022/06/25 04:11:16;;;;;;;8.48;3.13;;;;;;;15.93;100.00;100025.75;5093175;28;20452;-70
2022/06/25 04:13:42;;;;;;;9.70;3.83;;;;;;;15.91;100.00;100025.91;5078052;28;20040;-69
2022/06/25 04:16:07;;;;;;;4.55;2.80;;;;;;;15.95;100.00;100022.03;5066289;28;20024;-69
2022/06/25 04:18:32;;;;;;;9.00;3.35;;;;;;;15.96;100.00;100026.38;5066456;28;20084;-70
2022/06/25 04:20:59;;;;;;;6.00;3.17;;;;;;;15.99;100.00;100028.75;5078831;28;20035;-70
2022/06/25 04:23:24;;;;;;;5.20;3.00;;;;;;;16.06;100.00;100047.69;5078497;28;20052;-70
2022/06/25 04:25:49;;;;;;;5.22;3.00;;;;;;;16.06;100.00;100037.94;5088633;28;20061;-69
2022/06/25 04:30:58;;;;;;;5.57;2.80;;;;;;;16.12;100.00;100042.75;5082040;28;20039;-70
2022/06/25 04:33:24;;;;;;;5.20;3.10;;;;;;;16.06;100.00;100027.31;5078253;28;20021;-70
2022/06/25 04:35:49;;;;;;;6.13;3.03;;;;;;;16.19;100.00;100041.28;5088652;28;20029;-68
2022/06/25 04:38:16;;;;;;;5.90;2.35;;;;;;;16.17;100.00;100032.63;5086696;28;20027;-69
2022/06/25 04:40:42;;;;;;;4.82;3.17;;;;;;;16.30;100.00;100059.84;5092768;28;20070;-69
2022/06/25 04:43:07;;;;;;;4.15;2.55;;;;;;;16.19;100.00;100038.63;5049596;28;20134;-70
2022/06/25 04:45:33;;;;;;;5.25;2.97;;;;;;;16.33;100.00;100054.31;5013789;28;20020;-70
2022/06/25 04:48:03;;;;;;;4.20;2.58;;;;;;;16.30;100.00;100038.66;5020157;28;20134;-70
2022/06/25 04:50:28;;;;;;;5.13;2.88;;;;;;;16.36;100.00;100045.25;5050480;28;20033;-70
2022/06/25 04:52:54;;;;;;;4.05;2.30;;;;;;;16.41;100.00;100044.91;5068602;28;20036;-70
2022/06/25 04:55:20;;;;;;;8.20;3.35;;;;;;;16.47;100.00;100053.22;5048613;28;20029;-71
2022/06/25 04:57:45;;;;;;;6.25;3.15;;;;;;;16.55;100.00;100063.22;5048825;28;20028;-71
2022/06/25 05:00:11;;;;;;;3.92;2.45;;;;;;;16.19;100.00;100001.53;5078191;28;20812;-70
2022/06/25 05:02:38;;;;;;;4.75;2.53;;;;;;;16.51;100.00;100059.13;5071224;28;20104;-70
2022/06/25 05:05:04;;;;;;;4.35;2.40;;;;;;;16.53;100.00;100060.66;5074013;28;20082;-70
2022/06/25 05:07:29;;;;;;;12.13;3.58;;;;;;;16.40;100.00;100043.22;5092036;28;20028;-70
2022/06/25 05:09:55;;;;;;;5.07;2.45;;;;;;;16.50;100.00;100063.56;5076729;28;20041;-70
2022/06/25 05:15:04;;;;;;;5.90;2.63;;;;;;;16.41;100.00;100059.00;5069527;28;20071;-70
2022/06/25 05:17:30;;;;;;;9.55;3.03;;;;;;;16.45;100.00;100063.13;5085009;28;20028;-70
2022/06/25 05:19:55;;;;;;;5.05;2.60;;;;;;;16.41;100.00;100058.16;5054197;28;20378;-71
2022/06/25 05:22:21;;;;;;;5.32;2.75;;;;;;;16.11;100.00;100017.22;5085785;28;20024;-70
2022/06/25 05:24:47;;;;;;;4.55;2.80;;;;;;;16.49;100.00;100082.28;5078291;28;20032;-70
2022/06/25 05:27:12;;;;;;;5.00;3.40;;;;;;;16.25;100.00;100040.84;5090063;28;20016;-71
2022/06/25 05:29:37;;;;;;;4.22;2.67;;;;;;;16.41;100.00;100061.66;5089210;28;20099;-70
2022/06/25 05:32:03;;;;;;;4.13;2.70;;;;;;;16.62;100.00;100085.66;5057657;28;20033;-70
2022/06/25 05:34:29;;;;;;;6.05;3.13;;;;;;;16.61;100.00;100076.00;5051587;28;20068;-70
2022/06/25 05:36:54;;;;;;;4.53;2.40;;;;;;;16.77;100.00;100092.38;5057556;28;20020;-70
2022/06/25 05:39:19;;;;;;;6.93;2.95;;;;;;;16.76;100.00;100075.59;5061869;28;20483;-70
2022/06/25 05:41:45;;;;;;;7.32;3.05;;;;;;;16.91;100.00;100092.13;5054545;28;20033;-70
2022/06/25 05:44:11;;;;;;;8.02;2.63;;;;;;;16.89;100.00;100080.78;5077716;28;20032;-69
2022/06/25 05:46:36;;;;;;;6.13;2.95;;;;;;;16.94;100.00;100091.84;5087465;28;20032;-70
2022/06/25 05:49:02;;;;;;;5.88;2.53;;;;;;;17.02;100.00;100097.41;5075923;28;20106;-70
2022/06/25 05:51:27;;;;;;;9.15;2.83;;;;;;;17.00;100.00;100093.19;5079614;28;20031;-70
2022/06/25 05:53:53;;;;;;;7.53;3.05;;;;;;;17.01;100.00;100101.00;5078442;28;20028;-70
2022/06/25 05:56:18;;;;;;;4.78;2.72;;;;;;;17.08;100.00;100111.97;5067441;28;20051;-69
2022/06/25 05:58:43;;;;;;;6.30;2.88;;;;;;;17.02;100.00;100100.06;5095698;28;20092;-70
2022/06/25 06:01:09;;;;;;;6.80;2.50;;;;;;;17.02;100.00;100099.22;5077580;28;20115;-70
2022/06/25 06:03:34;;;;;;;7.63;2.72;;;;;;;17.00;100.00;100093.19;5068523;28;20487;-70
2022/06/25 06:05:59;;;;;;;4.53;2.35;;;;;;;17.04;100.00;100099.91;5080750;28;20055;-70
2022/06/25 06:08:25;;;;;;;4.35;2.17;;;;;;;17.10;100.00;100108.22;5080757;28;20036;-70
2022/06/25 06:10:50;;;;;;;4.30;2.22;;;;;;;17.12;100.00;100103.66;5087410;28;20100;-71
2022/06/25 06:13:15;;;;;;;6.50;2.78;;;;;;;17.34;100.00;100124.81;5078146;28;20573;-71
2022/06/25 06:15:41;;;;;;;5.00;2.60;;;;;;;17.41;100.00;100118.97;5089776;28;20028;-70
2022/06/25 06:18:06;;;;;;;8.30;2.25;;;;;;;17.47;100.00;100106.06;5052075;28;20050;-71
2022/06/25 06:20:32;;;;;;;5.05;2.50;;;;;;;17.65;100.00;100127.59;5087625;28;20447;-70
2022/06/25 06:22:57;;;;;;;3.95;1.88;;;;;;;17.70;100.00;100117.44;5090431;28;20024;-70
2022/06/25 06:25:22;;;;;;;4.85;2.20;;;;;;;17.88;100.00;100130.00;5093781;28;20385;-71
2022/06/25 06:27:48;;;;;;;5.60;2.30;;;;;;;17.81;100.00;100088.97;5082788;28;20458;-71
2022/06/25 06:30:13;;;;;;;9.68;2.20;;;;;;;18.15;100.00;100116.16;5077949;28;20031;-71
2022/06/25 06:32:38;;;;;;;4.32;2.00;;;;;;;18.10;100.00;100102.44;5095065;28;20119;-70
2022/06/25 06:35:05;;;;;;;13.88;1.77;;;;;;;18.21;100.00;100115.66;5094523;28;20028;-70
2022/06/25 06:37:30;;;;;;;7.57;2.28;;;;;;;18.31;100.00;100127.19;5086986;28;20487;-70
2022/06/25 06:39:56;;;;;;;4.90;1.80;;;;;;;18.29;100.00;100138.91;5075187;28;20095;-70
2022/06/25 06:42:21;;;;;;;5.38;2.33;;;;;;;18.23;100.00;100134.97;5086624;28;20029;-70
2022/06/25 06:44:46;;;;;;;5.07;2.03;;;;;;;18.17;100.00;100122.22;5086549;28;20103;-70
2022/06/25 06:47:12;;;;;;;4.60;2.22;;;;;;;18.17;100.00;100130.19;5090858;28;20047;-71
2022/06/25 06:49:38;;;;;;;7.30;2.20;;;;;;;18.25;100.00;100135.69;5076258;28;20082;-70
2022/06/25 06:52:04;;;;;;;3.53;1.75;;;;;;;18.24;100.00;100127.84;5090185;28;20032;-71
2022/06/25 06:54:29;;;;;;;4.95;1.95;;;;;;;18.27;100.00;100125.78;5074732;28;20032;-70
2022/06/25 06:56:55;;;;;;;6.18;2.40;;;;;;;18.27;100.00;100122.25;5080150;28;20042;-70
2022/06/25 06:59:21;;;;;;;6.13;2.10;;;;;;;18.32;100.00;100136.84;5059664;28;20037;-71
2022/06/25 07:01:46;;;;;;;6.88;2.55;;;;;;;18.28;100.00;100138.06;5077086;28;20024;-70
2022/06/25 07:04:12;;;;;;;5.63;2.13;;;;;;;18.20;100.00;100127.28;5063526;28;20032;-70
2022/06/25 07:06:37;;;;;;;7.15;2.15;;;;;;;18.16;100.00;100133.81;5073928;28;20082;-71
2022/06/25 07:09:03;;;;;;;6.65;2.38;;;;;;;18.05;100.00;100135.69;5074344;28;20474;-70
2022/06/25 07:11:28;;;;;;;7.85;2.17;;;;;;;18.00;100.00;100146.75;5047459;28;20021;-70
2022/06/25 07:13:55;;;;;;;4.63;2.00;;;;;;;18.01;100.00;100144.94;5071037;28;20447;-70
2022/06/25 07:16:21;;;;;;;5.35;2.00;;;;;;;17.93;100.00;100142.91;5071494;28;20047;-69
2022/06/25 07:18:46;;;;;;;8.20;2.47;;;;;;;17.87;100.00;100138.13;5089308;28;20020;-70
2022/06/25 07:21:12;;;;;;;4.93;2.30;;;;;;;17.91;100.00;100139.56;5076969;28;20111;-70
2022/06/25 07:23:37;;;;;;;7.95;2.15;;;;;;;17.85;100.00;100121.44;5045729;28;20041;-70
2022/06/25 07:26:02;;;;;;;6.18;2.50;;;;;;;17.98;100.00;100142.53;5065708;28;20024;-70
2022/06/25 07:28:28;;;;;;;6.43;2.33;;;;;;;18.05;100.00;100146.34;5079022;28;20024;-69
2022/06/25 07:30:53;;;;;;;10.57;2.67;;;;;;;18.09;100.00;100145.09;5083952;28;20031;-69
2022/06/25 07:33:19;;;;;;;5.90;2.30;;;;;;;17.76;100.00;100061.94;5055470;28;20073;-70
2022/06/25 07:35:44;;;;;;;6.28;2.63;;;;;;;18.51;100.00;100145.94;5080820;28;20368;-69
2022/06/25 07:38:10;;;;;;;9.13;2.00;;;;;;;18.76;100.00;100134.81;5068537;28;20466;-69
2022/06/25 07:40:35;;;;;;;5.53;1.98;;;;;;;19.16;100.00;100146.25;5061346;28;20024;-69
2022/06/25 07:43:01;;;;;;;5.35;2.10;;;;;;;19.39;100.00;100131.72;5063203;28;20021;-70
2022/06/25 07:45:27;;;;;;;4.25;1.50;;;;;;;19.55;100.00;100114.34;5061856;28;20111;-68
2022/06/25 07:47:52;;;;;;;7.25;1.80;;;;;;;19.78;100.00;100131.72;5079129;28;20175;-69
2022/06/25 07:53:02;;;;;;;5.07;1.90;;;;;;;20.16;100.00;100153.00;5085074;28;20055;-70
2022/06/25 07:55:27;;;;;;;3.95;1.67;;;;;;;20.16;100.00;100139.66;5073637;28;20032;-70
2022/06/25 07:57:53;;;;;;;5.80;1.92;;;;;;;20.15;100.00;100150.47;5088839;28;20542;-70
2022/06/25 08:00:18;;;;;;;4.57;2.00;;;;;;;20.15;100.00;100151.31;5079994;28;20029;-70
2022/06/25 08:02:43;;;;;;;6.13;1.80;;;;;;;20.05;100.00;100129.16;5061567;28;20028;-69
2022/06/25 08:05:09;;;;;;;5.75;2.20;;;;;;;20.11;100.00;100141.09;5078111;28;20497;-70
2022/06/25 08:07:34;;;;;;;3.35;1.50;;;;;;;20.11;100.00;100128.56;5066694;28;20029;-70
2022/06/25 08:10:00;;;;;;;8.63;2.13;;;;;;;20.20;100.00;100151.75;5034741;28;20021;-70
2022/06/25 08:12:25;;;;;;;4.60;1.90;;;;;;;20.20;100.00;100137.56;5088044;28;20488;-70
2022/06/25 08:14:50;;;;;;;4.32;2.00;;;;;;;20.22;100.00;100131.09;5082179;28;20024;-70
2022/06/25 08:17:16;;;;;;;4.75;2.20;;;;;;;20.32;100.00;100125.75;5075742;28;20028;-70
2022/06/25 08:19:41;;;;;;;6.55;2.47;;;;;;;20.44;100.00;100129.09;5084133;28;20448;-70
2022/06/25 08:22:07;;;;;;;2.65;1.40;;;;;;;20.47;100.00;100129.63;5072563;28;20028;-71
2022/06/25 08:24:32;;;;;;;3.88;1.83;;;;;;;20.46;100.00;100129.75;5069225;28;20031;-71
2022/06/25 08:26:57;;;;;;;4.63;2.10;;;;;;;20.43;100.00;100122.91;5085162;28;20476;-70
2022/06/25 08:29:23;;;;;;;5.18;1.88;;;;;;;20.45;100.00;100141.44;5078639;28;20028;-70
2022/06/25 08:31:48;;;;;;;3.53;1.50;;;;;;;20.25;100.00;100133.47;5080562;28;20052;-72
2022/06/25 08:34:13;;;;;;;14.52;1.73;;;;;;;20.22;100.00;100144.41;5076978;28;20356;-71
2022/06/25 08:36:39;;;;;;;5.63;1.73;;;;;;;20.21;100.00;100144.59;5086101;28;20047;-71
2022/06/25 08:39:04;;;;;;;3.97;1.75;;;;;;;20.17;100.00;100149.38;5072079;28;20032;-70
2022/06/25 08:41:30;;;;;;;3.33;1.30;;;;;;;20.19;100.00;100150.06;5076114;28;20374;-70
2022/06/25 08:43:55;;;;;;;4.13;1.70;;;;;;;20.31;100.00;100156.09;5088676;28;20062;-69
2022/06/25 08:46:21;;;;;;;3.42;1.33;;;;;;;20.41;100.00;100145.41;5081621;28;20040;-70
2022/06/25 08:48:49;;;;;;;2.63;1.17;;;;;;;20.68;100.00;100153.44;5063053;28;20033;-70
2022/06/25 08:51:18;;;;;;;2.42;1.15;;;;;;;20.76;100.00;100162.38;5066204;28;20024;-69
2022/06/25 08:53:43;;;;;;;7.43;1.33;;;;;;;20.68;100.00;100148.09;5077911;28;20082;-69
2022/06/25 08:56:09;;;;;;;3.65;1.40;;;;;;;20.41;100.00;100134.72;5063718;28;20026;-70
2022/06/25 08:58:35;;;;;;;3.53;1.40;;;;;;;20.43;100.00;100154.94;5049675;28;20486;-69
2022/06/25 09:01:01;;;;;;;3.47;1.20;;;;;;;20.33;100.00;100151.44;5053777;28;20036;-70
2022/06/25 09:03:26;;;;;;;2.92;1.20;;;;;;;20.14;100.00;100148.81;5050636;28;20033;-70
2022/06/25 09:05:52;;;;;;;2.45;1.15;;;;;;;20.02;100.00;100140.13;5083010;28;20117;-69
2022/06/25 09:08:17;;;;;;;3.28;1.42;;;;;;;20.08;100.00;100142.19;5061683;28;20510;-70
2022/06/25 09:10:45;;;;;;;3.67;1.33;;;;;;;20.28;100.00;100151.03;5057238;28;20502;-70
2022/06/25 09:13:12;;;;;;;5.47;1.75;;;;;;;20.49;100.00;100154.34;5074990;28;20043;-70
2022/06/25 09:15:40;;;;;;;3.10;1.50;;;;;;;20.77;100.00;100147.19;5052352;28;20043;-70
2022/06/25 09:18:14;;;;;;;6.40;1.73;;;;;;;21.21;100.00;100141.06;5057362;28;20016;-69
2022/06/25 09:20:58;;;;;;;4.88;1.35;;;;;;;21.43;100.00;100106.88;5057347;28;20483;-69
2022/06/25 09:23:24;;;;;;;;;;;;;;;21.81;100.00;100152.84;5062198;28;20441;-70
2022/06/25 09:26:02;;;;;;;4.40;1.35;;;;;;;21.75;100.00;100161.47;5051851;28;19916;-69
2022/06/25 09:28:33;;;;;;;5.53;1.65;;;;;;;21.61;100.00;100153.16;5059789;28;20083;-70
2022/06/25 09:30:59;;;;;;;6.13;1.67;;;;;;;21.28;100.00;100123.44;5056759;28;20024;-70
2022/06/25 09:33:25;;;;;;;2.92;1.42;;;;;;;21.38;100.00;100148.28;5044034;28;20029;-69
2022/06/25 09:35:52;;;;;;;3.95;1.30;;;;;;;21.35;100.00;100148.56;5062508;28;20031;-69
2022/06/25 09:38:17;;;;;;;2.53;1.00;;;;;;;21.36;100.00;100146.72;5059517;28;20100;-69
2022/06/25 09:40:59;;;;;;;7.63;1.90;;;;;;;21.36;100.00;100150.22;5060995;28;20451;-69
2022/06/25 09:43:27;;;;;;;4.43;1.67;;;;;;;21.31;100.00;100152.53;5057186;28;20390;-69
2022/06/25 09:45:55;;;;;;;2.53;1.10;;;;;;;20.93;100.00;100096.63;5048234;28;20027;-70
2022/06/25 09:48:25;;;;;;;3.58;1.40;;;;;;;21.12;100.00;100131.31;5084746;28;20043;-72
2022/06/25 09:51:28;;;;;;;3.10;1.67;;;;;;;21.29;100.00;100156.38;5071316;28;20020;-70
2022/06/25 09:53:58;;;;;;;3.78;1.40;;;;;;;21.29;100.00;100148.34;5044705;28;20049;-70
2022/06/25 09:56:31;;;;;;;3.60;1.42;;;;;;;21.31;100.00;100131.16;5076945;28;20398;-70
2022/06/25 09:58:57;;;;;;;4.80;1.73;;;;;;;21.60;100.00;100154.13;5070178;28;20040;-70
2022/06/25 10:01:25;;;;;;;3.05;1.45;;;;;;;21.66;100.00;100137.50;5089426;28;20082;-70
2022/06/25 10:03:51;;;;;;;3.55;1.40;;;;;;;21.53;100.00;100099.59;5056148;28;20021;-71
2022/06/25 10:06:19;;;;;;;3.28;1.23;;;;;;;21.85;100.00;100140.84;5066057;28;20377;-71
2022/06/25 10:08:50;;;;;;;8.25;1.58;;;;;;;21.88;100.00;100145.88;5072720;28;20028;-70
2022/06/25 10:11:20;;;;;;;5.93;1.25;;;;;;;22.01;100.00;100160.69;5084739;28;20560;-71
2022/06/25 10:13:48;;;;;;;3.05;1.10;;;;;;;21.99;100.00;100136.78;5063532;28;20390;-70
2022/06/25 10:16:16;;;;;;;5.07;1.20;;;;;;;22.00;100.00;100094.81;5058806;28;20021;-71
2022/06/25 10:18:43;;;;;;;4.40;1.23;;;;;;;22.52;100.00;100127.72;5055789;28;20052;-70
2022/06/25 10:21:08;;;;;;;2.90;1.00;;;;;;;22.48;100.00;100145.94;5045876;28;20458;-70
2022/06/25 10:23:34;;;;;;;2.58;0.85;;;;;;;22.29;100.00;100156.91;5058180;28;20036;-70
2022/06/25 10:25:59;;;;;;;10.25;1.40;;;;;;;22.04;100.00;100134.47;5055218;28;20035;-70
2022/06/25 10:28:27;;;;;;;4.20;1.30;;;;;;;21.97;100.00;100148.66;5067723;28;20490;-70
2022/06/25 10:30:57;;;;;;;4.50;1.40;;;;;;;21.79;100.00;100135.25;5062214;28;20029;-69
2022/06/25 10:33:38;;;;;;;3.83;1.05;;;;;;;21.99;100.00;100152.84;5062224;28;20126;-70
2022/06/25 10:36:04;;;;;;;2.78;1.30;;;;;;;22.10;100.00;100139.22;5061757;28;20051;-70
2022/06/25 10:38:30;;;;;;;6.32;1.25;;;;;;;22.33;100.00;100118.94;5045636;28;20029;-70
2022/06/25 10:40:57;;;;;;;3.05;1.30;;;;;;;22.89;100.00;100149.69;5059160;28;20029;-69
2022/06/25 10:43:39;;;;;;;4.38;1.30;;;;;;;23.12;100.00;100145.41;5056528;28;20041;-70
2022/06/25 10:46:23;;;;;;;2.95;1.60;;;;;;;23.07;100.00;100152.28;5058304;28;20043;-70
2022/06/25 10:48:55;;;;;;;3.03;1.25;;;;;;;23.04;100.00;100141.88;5064582;28;20043;-70
2022/06/25 10:51:32;;;;;;;3.75;1.50;;;;;;;22.96;100.00;100148.06;5068110;28;20209;-70
2022/06/25 10:53:59;;;;;;;3.08;1.38;;;;;;;22.70;100.00;100147.28;5053369;28;20822;-70
2022/06/25 10:56:25;;;;;;;3.35;1.38;;;;;;;22.39;100.00;100107.59;5026419;28;20399;-70
2022/06/25 10:58:52;;;;;;;2.53;1.23;;;;;;;22.64;100.00;100143.38;5058043;28;20025;-70
2022/06/25 11:01:19;;;;;;;3.92;1.20;;;;;;;22.79;100.00;100143.63;5059336;28;20413;-70
2022/06/25 11:03:45;;;;;;;3.28;1.40;;;;;;;22.84;100.00;100127.91;5055284;28;20075;-70
2022/06/25 11:06:22;;;;;;;4.70;1.80;;;;;;;23.25;100.00;100153.81;5073805;28;20055;-70
2022/06/25 11:08:49;;;;;;;9.10;2.15;;;;;;;23.60;100.00;100141.16;5086253;28;20390;-70
2022/06/25 11:11:35;;;;;;;4.32;1.70;;;;;;;23.63;100.00;100138.16;5076004;28;20496;-71
2022/06/25 11:14:02;;;;;;;3.13;1.60;;;;;;;23.57;100.00;100136.16;5068421;28;20052;-70
2022/06/25 11:16:28;;;;;;;8.10;1.85;;;;;;;23.50;100.00;100127.94;5063505;28;20029;-70
2022/06/25 11:18:56;;;;;;;8.05;4.47;;;;;;;23.42;100.00;100134.09;5088380;28;20028;-70
2022/06/25 11:21:37;;;;;;;5.90;2.50;;;;;;;23.36;100.00;100134.75;5064806;28;20025;-70
2022/06/25 11:24:09;;;;;;;6.32;1.83;;;;;;;23.58;100.00;100135.16;5086516;28;20428;-70
2022/06/25 11:29:24;;;;;;;5.88;3.00;;;;;;;24.57;100.00;100136.53;5067365;28;20097;-70
2022/06/25 11:31:51;;;;;;;5.68;2.75;;;;;;;24.82;100.00;100129.22;5055704;28;20028;-70
2022/06/25 11:34:18;;;;;;;2.70;1.20;;;;;;;25.43;100.00;100141.88;5092352;28;20024;-71
2022/06/25 11:36:43;;;;;;;3.58;2.15;;;;;;;25.67;100.00;100108.59;5065368;28;20028;-70
2022/06/25 11:39:08;;;;;;;5.97;1.80;;;;;;;25.76;100.00;100129.03;5074626;28;20024;-70
2022/06/25 11:41:34;;;;;;;4.93;2.30;;;;;;;25.60;100.00;100123.78;5056972;28;20061;-70